createdAt,value
2022-09-29T00:01:31.474Z,40.20
2022-09-29T00:04:16.578Z,38.67
2022-09-29T00:07:01.518Z,37.43
2022-09-29T00:09:47.084Z,37.90
2022-09-29T00:12:31.980Z,41.17
2022-09-29T00:15:16.986Z,35.70
2022-09-29T00:18:13.793Z,35.93
2022-09-29T00:21:04.186Z,38.83
2022-09-29T00:23:50.554Z,39.30
2022-09-29T00:26:35.604Z,37.73
2022-09-29T00:29:20.694Z,36.57
2022-09-29T00:32:05.811Z,35.87
2022-09-29T00:34:50.914Z,36.87
2022-09-29T00:37:36.924Z,38.67
2022-09-29T00:40:22.071Z,38.10
2022-09-29T00:43:19.411Z,41.03
2022-09-29T00:46:04.585Z,38.27
2022-09-29T00:48:50.089Z,36.87
2022-09-29T00:51:38.170Z,41.67
2022-09-29T00:54:27.014Z,37.07
2022-09-29T00:57:15.884Z,40.83
2022-09-29T01:00:00.854Z,40.47
2022-09-29T01:02:51.988Z,39.00
2022-09-29T01:05:40.472Z,37.97
2022-09-29T01:08:33.944Z,35.20
2022-09-29T01:11:21.762Z,36.60
2022-09-29T01:14:09.458Z,37.63
2022-09-29T01:16:54.832Z,35.77
2022-09-29T01:20:04.610Z,36.33
2022-09-29T01:23:35.016Z,39.07
2022-09-29T01:26:47.759Z,37.33
2022-09-29T01:29:51.026Z,38.67
2022-09-29T01:33:01.343Z,39.47
2022-09-29T01:36:25.362Z,39.10
2022-09-29T01:39:30.655Z,34.40
2022-09-29T01:42:32.604Z,33.90
2022-09-29T01:45:27.116Z,32.93
2022-09-29T01:48:19.652Z,38.53
2022-09-29T01:51:10.021Z,36.53
2022-09-29T01:54:00.581Z,37.23
2022-09-29T01:56:54.646Z,35.70
2022-09-29T01:59:49.265Z,37.83
2022-09-29T02:02:37.665Z,39.20
2022-09-29T02:05:30.607Z,33.73
2022-09-29T02:08:27.645Z,36.47
2022-09-29T02:11:13.986Z,32.70
2022-09-29T02:14:07.306Z,33.10
2022-09-29T02:17:02.924Z,36.53
2022-09-29T02:19:54.002Z,43.07
2022-09-29T02:22:40.410Z,42.47
2022-09-29T02:25:25.697Z,38.80
2022-09-29T02:28:13.982Z,40.40
2022-09-29T02:30:59.970Z,42.13
2022-09-29T02:33:45.179Z,39.43
2022-09-29T02:36:42.361Z,36.43
2022-09-29T02:39:49.078Z,39.40
2022-09-29T02:42:46.685Z,36.60
2022-09-29T02:45:38.357Z,40.33
2022-09-29T02:48:34.171Z,32.47
2022-09-29T02:51:21.130Z,36.20
2022-09-29T02:54:09.142Z,33.77
2022-09-29T02:57:15.395Z,32.23
2022-09-29T03:00:00.277Z,36.17
2022-09-29T03:02:45.757Z,35.97
2022-09-29T03:05:30.754Z,34.37
2022-09-29T03:08:15.636Z,32.90
2022-09-29T03:11:00.619Z,30.70
2022-09-29T03:13:45.561Z,32.47
2022-09-29T03:16:30.453Z,35.00
2022-09-29T03:19:15.927Z,35.17
2022-09-29T03:22:01.336Z,34.40
2022-09-29T03:24:46.355Z,34.37
2022-09-29T03:27:31.169Z,34.47
2022-09-29T03:30:16.630Z,37.03
2022-09-29T03:33:02.012Z,34.87
2022-09-29T03:35:47.523Z,36.97
2022-09-29T03:38:33.287Z,35.00
2022-09-29T03:41:18.494Z,35.17
2022-09-29T03:44:04.244Z,34.43
2022-09-29T03:46:49.537Z,37.40
2022-09-29T03:49:34.744Z,34.67
2022-09-29T03:52:19.913Z,31.73
2022-09-29T03:55:05.538Z,34.07
2022-09-29T03:57:50.709Z,32.53
2022-09-29T04:00:39.507Z,38.40
2022-09-29T04:03:24.492Z,32.77
2022-09-29T04:06:09.719Z,34.47
2022-09-29T04:08:54.616Z,31.70
2022-09-29T04:11:39.463Z,31.90
2022-09-29T04:14:24.312Z,31.97
2022-09-29T04:17:09.731Z,28.23
2022-09-29T04:19:54.696Z,30.97
2022-09-29T04:22:39.779Z,32.13
2022-09-29T04:25:24.815Z,27.60
2022-09-29T04:28:09.935Z,30.20
2022-09-29T04:30:54.875Z,31.57
2022-09-29T04:33:39.642Z,33.00
2022-09-29T04:36:24.532Z,31.27
2022-09-29T04:39:09.466Z,31.33
2022-09-29T04:41:54.698Z,30.90
2022-09-29T04:44:39.777Z,32.37
2022-09-29T04:47:24.982Z,32.70
2022-09-29T04:50:09.968Z,36.53
2022-09-29T04:52:54.821Z,30.83
2022-09-29T04:55:39.790Z,28.57
2022-09-29T04:58:24.749Z,30.90
2022-09-29T05:01:11.974Z,35.07
2022-09-29T05:03:57.649Z,27.37
2022-09-29T05:06:42.789Z,28.47
2022-09-29T05:09:32.396Z,27.83
2022-09-29T05:12:18.449Z,30.70
2022-09-29T05:15:04.303Z,31.13
2022-09-29T05:17:49.213Z,39.33
2022-09-29T05:20:40.062Z,32.90
2022-09-29T05:23:30.370Z,30.17
2022-09-29T05:26:15.438Z,32.63
2022-09-29T05:29:00.739Z,32.90
2022-09-29T05:31:45.643Z,33.83
2022-09-29T05:34:31.112Z,30.23
2022-09-29T05:37:16.117Z,32.27
2022-09-29T05:40:01.337Z,27.50
2022-09-29T05:42:46.659Z,28.57
2022-09-29T05:45:31.650Z,31.57
2022-09-29T05:48:16.946Z,32.27
2022-09-29T05:51:08.795Z,31.97
2022-09-29T05:53:54.248Z,50.30
2022-09-29T05:56:43.117Z,29.93
2022-09-29T05:59:30.591Z,30.83
2022-09-29T06:02:16.133Z,32.87
2022-09-29T06:05:01.318Z,34.37
2022-09-29T06:07:46.430Z,32.50
2022-09-29T06:10:31.983Z,33.07
2022-09-29T06:13:17.301Z,32.57
2022-09-29T06:16:02.560Z,31.70
2022-09-29T06:18:48.199Z,41.10
2022-09-29T06:21:33.259Z,33.07
2022-09-29T06:24:18.922Z,32.70
2022-09-29T06:27:03.975Z,33.77
2022-09-29T06:29:49.254Z,32.67
2022-09-29T06:32:34.837Z,32.53
2022-09-29T06:35:20.346Z,32.00
2022-09-29T06:38:05.621Z,33.50
2022-09-29T06:40:51.320Z,35.07
2022-09-29T06:43:36.317Z,38.43
2022-09-29T06:46:21.721Z,34.40
2022-09-29T06:49:06.801Z,36.30
2022-09-29T06:51:52.229Z,34.00
2022-09-29T06:54:37.403Z,34.07
2022-09-29T06:57:22.283Z,30.77
2022-09-29T07:00:08.176Z,30.07
2022-09-29T07:02:53.432Z,28.70
2022-09-29T07:05:38.769Z,23.67
2022-09-29T07:08:24.097Z,23.07
2022-09-29T07:11:10.477Z,24.13
2022-09-29T07:13:55.498Z,27.00
2022-09-29T07:16:40.836Z,26.00
2022-09-29T07:19:26.087Z,23.37
2022-09-29T07:22:11.434Z,25.20
2022-09-29T07:24:56.315Z,27.67
2022-09-29T07:27:41.953Z,25.27
2022-09-29T07:30:37.171Z,30.57
2022-09-29T07:33:35.628Z,22.10
2022-09-29T07:36:23.876Z,25.15
2022-09-29T07:39:08.941Z,25.65
2022-09-29T07:41:53.892Z,26.38
2022-09-29T07:44:38.823Z,20.80
2022-09-29T07:47:23.797Z,22.55
2022-09-29T07:50:09.114Z,22.85
2022-09-29T07:52:54.155Z,23.25
2022-09-29T07:55:39.614Z,21.42
2022-09-29T07:58:24.768Z,21.33
2022-09-29T08:01:11.601Z,23.67
2022-09-29T08:03:57.214Z,19.67
2022-09-29T08:06:42.422Z,22.70
2022-09-29T08:09:37.721Z,22.08
2022-09-29T08:12:31.833Z,21.45
2022-09-29T08:15:23.950Z,21.40
2022-09-29T08:18:09.399Z,22.85
2022-09-29T08:20:55.288Z,21.38
2022-09-29T08:23:43.485Z,22.25
2022-09-29T08:26:40.043Z,22.83
2022-09-29T08:29:30.845Z,24.02
2022-09-29T08:32:20.768Z,20.52
2022-09-29T08:35:06.116Z,21.55
2022-09-29T08:37:53.837Z,22.98
2022-09-29T08:40:38.971Z,22.23
2022-09-29T08:43:35.155Z,21.05
2022-09-29T08:46:36.202Z,21.90
2022-09-29T08:49:37.089Z,25.58
2022-09-29T08:52:26.390Z,24.45
2022-09-29T08:55:21.626Z,23.48
2022-09-29T08:58:11.585Z,22.85
2022-09-29T09:01:02.824Z,22.60
2022-09-29T09:04:00.517Z,21.58
2022-09-29T09:07:06.477Z,23.92
2022-09-29T09:10:09.002Z,25.13
2022-09-29T09:13:12.998Z,27.57
2022-09-29T09:16:13.126Z,31.60
2022-09-29T09:19:26.447Z,24.90
2022-09-29T09:22:19.914Z,26.07
2022-09-29T09:25:19.402Z,27.00
2022-09-29T09:28:13.888Z,28.35
2022-09-29T09:31:35.572Z,25.53
2022-09-29T09:34:39.634Z,25.48
2022-09-29T09:37:39.346Z,28.83
2022-09-29T09:40:27.522Z,25.85
2022-09-29T09:43:18.079Z,28.50
2022-09-29T09:46:34.365Z,25.88
2022-09-29T09:49:35.573Z,23.55
2022-09-29T09:53:01.908Z,25.50
2022-09-29T09:56:01.019Z,22.50
2022-09-29T09:59:01.766Z,23.48
2022-09-29T10:01:47.143Z,19.90
2022-09-29T10:04:32.765Z,22.07
2022-09-29T10:07:20.794Z,20.77
2022-09-29T10:10:16.595Z,19.53
2022-09-29T10:13:11.971Z,20.92
2022-09-29T10:16:19.728Z,20.38
2022-09-29T10:19:05.207Z,22.90
2022-09-29T10:21:51.358Z,21.48
2022-09-29T10:24:36.737Z,20.73
2022-09-29T10:27:24.644Z,22.55
2022-09-29T10:30:22.201Z,25.52
2022-09-29T10:33:15.186Z,19.92
2022-09-29T10:36:08.504Z,20.60
2022-09-29T10:38:54.269Z,20.73
2022-09-29T10:41:51.292Z,20.80
2022-09-29T10:44:39.259Z,20.25
2022-09-29T10:47:24.613Z,19.38
2022-09-29T10:50:13.267Z,22.15
2022-09-29T10:53:01.512Z,18.17
2022-09-29T10:55:54.437Z,18.65
2022-09-29T10:58:52.548Z,18.23
2022-09-29T11:01:49.030Z,18.75
2022-09-29T11:04:35.077Z,17.23
2022-09-29T11:07:20.262Z,16.90
2022-09-29T11:10:26.028Z,16.70
2022-09-29T11:13:20.356Z,15.20
2022-09-29T11:16:15.997Z,14.90
2022-09-29T11:19:06.107Z,15.93
2022-09-29T11:21:51.702Z,16.35
2022-09-29T11:24:36.560Z,16.10
2022-09-29T11:27:43.271Z,17.13
2022-09-29T11:30:53.074Z,16.48
2022-09-29T11:34:06.005Z,16.77
2022-09-29T11:37:22.076Z,17.02
2022-09-29T11:40:33.214Z,16.25
2022-09-29T11:43:27.629Z,14.38
2022-09-29T11:46:27.691Z,15.57
2022-09-29T11:49:27.860Z,20.83
2022-09-29T11:52:30.977Z,14.90
2022-09-29T11:55:40.346Z,14.57
2022-09-29T11:59:12.902Z,14.77
2022-09-29T12:02:18.175Z,82.30
2022-09-29T12:05:29.330Z,17.85
2022-09-29T12:08:36.213Z,15.23
2022-09-29T12:15:07.832Z,12.80
2022-09-29T12:17:57.741Z,12.35
2022-09-29T12:20:46.952Z,11.10
2022-09-29T12:23:34.636Z,15.02
2022-09-29T12:26:23.505Z,12.15
2022-09-29T12:29:23.138Z,12.73
2022-09-29T12:32:30.267Z,13.65
2022-09-29T12:35:20.951Z,14.57
2022-09-29T12:38:27.862Z,13.50
2022-09-29T12:41:23.566Z,16.40
2022-09-29T12:44:23.132Z,16.70
2022-09-29T12:47:20.069Z,17.38
2022-09-29T12:50:17.889Z,17.40
2022-09-29T12:53:22.373Z,14.82
2022-09-29T12:56:18.724Z,15.65
2022-09-29T12:59:20.679Z,14.30
2022-09-29T13:02:56.952Z,15.07
2022-09-29T13:06:03.517Z,14.48
2022-09-29T13:09:07.754Z,12.60
2022-09-29T13:12:18.647Z,13.25
2022-09-29T13:15:23.050Z,13.30
2022-09-29T13:18:14.389Z,11.65
2022-09-29T13:24:34.930Z,13.05
2022-09-29T13:27:33.624Z,10.57
2022-09-29T13:30:22.495Z,9.75
2022-09-29T13:33:15.734Z,9.98
2022-09-29T13:36:01.884Z,7.03
2022-09-29T13:38:53.315Z,9.73
2022-09-29T13:41:38.640Z,8.48
2022-09-29T13:44:26.506Z,10.73
2022-09-29T13:47:32.963Z,8.98
2022-09-29T13:51:01.773Z,10.13
2022-09-29T13:54:27.781Z,8.80
2022-09-29T13:57:12.732Z,10.95
2022-09-29T13:59:57.448Z,11.65
2022-09-29T14:03:00.161Z,15.27
2022-09-29T14:05:47.023Z,12.10
2022-09-29T14:08:40.892Z,10.50
2022-09-29T14:11:34.275Z,11.55
2022-09-29T14:14:30.491Z,9.02
2022-09-29T14:17:15.474Z,8.90
2022-09-29T14:20:30.839Z,9.27
2022-09-29T14:23:44.455Z,9.40
2022-09-29T14:26:46.445Z,7.43
2022-09-29T14:29:35.311Z,8.20
2022-09-29T14:32:32.667Z,10.77
2022-09-29T14:35:24.840Z,9.63
2022-09-29T14:38:15.712Z,8.82
2022-09-29T14:41:22.338Z,7.90
2022-09-29T14:44:19.614Z,7.47
2022-09-29T14:47:22.077Z,7.22
2022-09-29T14:50:24.687Z,7.90
2022-09-29T14:53:38.744Z,7.53
2022-09-29T14:56:49.422Z,8.55
2022-09-29T14:59:57.386Z,7.18
2022-09-29T15:02:55.440Z,7.38
2022-09-29T15:05:45.329Z,9.88
2022-09-29T15:08:31.854Z,7.93
2022-09-29T15:11:31.576Z,11.00
2022-09-29T15:14:41.677Z,11.45
2022-09-29T15:17:43.146Z,10.32
2022-09-29T15:20:53.155Z,9.52
2022-09-29T15:24:16.814Z,7.10
2022-09-29T15:27:06.223Z,10.32
2022-09-29T15:29:55.912Z,8.75
2022-09-29T15:32:41.215Z,10.20
2022-09-29T15:35:26.637Z,10.98
2022-09-29T15:38:24.377Z,9.00
2022-09-29T15:41:12.800Z,7.30
2022-09-29T15:44:13.898Z,7.28
2022-09-29T15:47:00.301Z,12.05
2022-09-29T15:49:52.765Z,10.98
2022-09-29T15:52:38.112Z,8.65
2022-09-29T15:55:24.746Z,12.25
2022-09-29T15:58:25.337Z,10.07
2022-09-29T16:01:13.929Z,8.20
2022-09-29T16:04:00.936Z,8.88
2022-09-29T16:06:46.080Z,9.75
2022-09-29T16:09:31.139Z,11.10
2022-09-29T16:12:19.321Z,9.30
2022-09-29T16:15:05.835Z,8.20
2022-09-29T16:17:51.392Z,10.43
2022-09-29T16:20:36.943Z,9.98
2022-09-29T16:23:25.586Z,12.15
2022-09-29T16:26:15.693Z,10.27
2022-09-29T16:29:10.153Z,7.57
2022-09-29T16:31:56.542Z,9.32
2022-09-29T16:34:41.853Z,9.98
2022-09-29T16:37:27.009Z,10.18
2022-09-29T16:40:18.969Z,8.80
2022-09-29T16:43:04.195Z,9.57
2022-09-29T16:45:51.286Z,7.43
2022-09-29T16:48:41.677Z,9.52
2022-09-29T16:51:38.779Z,12.13
2022-09-29T16:54:28.422Z,11.25
2022-09-29T16:57:22.536Z,9.30
2022-09-29T17:00:12.357Z,9.15
2022-09-29T17:02:57.812Z,21.02
2022-09-29T17:05:45.750Z,9.93
2022-09-29T17:08:31.257Z,9.85
2022-09-29T17:11:16.551Z,13.93
2022-09-29T17:14:01.436Z,13.07
2022-09-29T17:16:46.348Z,14.90
2022-09-29T17:19:31.594Z,20.48
2022-09-29T17:22:31.238Z,45.80
2022-09-29T17:25:16.515Z,28.88
2022-09-29T17:28:01.920Z,21.02
2022-09-29T17:30:48.367Z,26.52
2022-09-29T17:33:33.650Z,20.15
2022-09-29T17:36:19.720Z,23.73
2022-09-29T17:39:04.848Z,19.83
2022-09-29T17:41:49.994Z,21.33
2022-09-29T17:44:34.884Z,24.05
2022-09-29T17:47:28.815Z,23.63
2022-09-29T17:50:22.974Z,22.07
2022-09-29T17:53:08.127Z,26.07
2022-09-29T17:55:56.288Z,23.50
2022-09-29T17:58:41.579Z,25.13
2022-09-29T18:01:26.670Z,21.20
2022-09-29T18:04:11.710Z,21.50
2022-09-29T18:06:56.728Z,25.53
2022-09-29T18:09:42.133Z,21.17
2022-09-29T18:12:27.501Z,26.60
2022-09-29T18:15:12.494Z,21.50
2022-09-29T18:18:00.954Z,22.63
2022-09-29T18:20:46.370Z,23.87
2022-09-29T18:23:31.727Z,22.33
2022-09-29T18:26:16.773Z,28.17
2022-09-29T18:29:13.924Z,28.40
2022-09-29T18:31:59.691Z,24.37
2022-09-29T18:34:45.048Z,26.83
2022-09-29T18:37:30.051Z,28.13
2022-09-29T18:40:15.452Z,54.50
2022-09-29T18:43:00.572Z,108.63
2022-09-29T18:45:45.938Z,29.60
2022-09-29T18:48:30.965Z,28.60
2022-09-29T18:51:19.839Z,28.00
2022-09-29T18:54:06.760Z,32.53
2022-09-29T18:56:54.636Z,25.53
2022-09-29T18:59:40.144Z,29.53
2022-09-29T19:02:25.426Z,30.33
2022-09-29T19:05:13.674Z,35.63
2022-09-29T19:08:01.628Z,40.07
2022-09-29T19:10:49.155Z,40.30
2022-09-29T19:13:33.997Z,36.43
2022-09-29T19:16:18.942Z,36.97
2022-09-29T19:19:04.628Z,32.23
2022-09-29T19:21:49.634Z,31.37
2022-09-29T19:24:34.479Z,33.70
2022-09-29T19:27:20.919Z,38.97
2022-09-29T19:30:07.206Z,35.00
2022-09-29T19:32:53.315Z,40.00
2022-09-29T19:35:38.517Z,37.07
2022-09-29T19:38:23.884Z,39.37
2022-09-29T19:41:22.944Z,35.83
2022-09-29T19:44:08.400Z,36.60
2022-09-29T19:46:53.429Z,34.57
2022-09-29T19:49:38.440Z,39.50
2022-09-29T19:52:23.407Z,38.77
2022-09-29T19:55:08.430Z,46.17
2022-09-29T19:57:53.230Z,41.70
2022-09-29T20:00:38.892Z,37.80
2022-09-29T20:03:24.153Z,43.53
2022-09-29T20:06:09.295Z,39.50
2022-09-29T20:08:54.345Z,37.47
2022-09-29T20:11:39.794Z,38.30
2022-09-29T20:14:26.642Z,43.30
2022-09-29T20:17:11.869Z,42.33
2022-09-29T20:19:56.770Z,45.50
2022-09-29T20:22:41.836Z,41.40
2022-09-29T20:25:27.119Z,39.53
2022-09-29T20:28:15.427Z,40.07
2022-09-29T20:31:01.198Z,41.50
2022-09-29T20:33:50.939Z,38.90
2022-09-29T20:36:36.265Z,34.10
2022-09-29T20:39:22.182Z,33.27
2022-09-29T20:42:07.279Z,38.33
2022-09-29T20:44:52.616Z,31.50
2022-09-29T20:47:37.988Z,28.87
2022-09-29T20:50:23.196Z,36.43
2022-09-29T20:53:08.126Z,38.83
2022-09-29T20:56:08.759Z,43.23
2022-09-29T20:58:53.644Z,39.87
2022-09-29T21:01:38.844Z,43.67
2022-09-29T21:04:24.148Z,46.30
2022-09-29T21:07:09.517Z,39.00
2022-09-29T21:09:54.498Z,40.13
2022-09-29T21:12:39.731Z,39.40
2022-09-29T21:15:24.687Z,36.27
2022-09-29T21:18:09.923Z,42.40
2022-09-29T21:20:56.324Z,40.83
2022-09-29T21:23:42.592Z,36.93
2022-09-29T21:26:28.145Z,47.23
2022-09-29T21:29:17.551Z,41.03
2022-09-29T21:32:02.341Z,39.27
2022-09-29T21:34:47.301Z,38.03
2022-09-29T21:37:32.309Z,39.03
2022-09-29T21:40:17.392Z,38.07
2022-09-29T21:43:02.528Z,39.30
2022-09-29T21:45:47.329Z,35.77
2022-09-29T21:48:33.989Z,44.47
2022-09-29T21:51:24.994Z,41.07
2022-09-29T21:54:13.358Z,41.60
2022-09-29T21:56:58.404Z,45.60
2022-09-29T21:59:43.363Z,41.00
2022-09-29T22:02:28.958Z,36.80
2022-09-29T22:05:14.312Z,38.67
2022-09-29T22:07:59.244Z,37.90
2022-09-29T22:10:48.515Z,43.20
2022-09-29T22:13:33.903Z,44.20
2022-09-29T22:16:20.766Z,46.07
2022-09-29T22:19:22.378Z,48.93
2022-09-29T22:22:08.411Z,42.07
2022-09-29T22:24:53.375Z,50.67
2022-09-29T22:27:38.221Z,44.73
2022-09-29T22:30:23.492Z,45.07
2022-09-29T22:33:08.341Z,42.30
2022-09-29T22:35:57.447Z,40.80
2022-09-29T22:38:42.748Z,43.90
2022-09-29T22:41:27.856Z,47.23
2022-09-29T22:44:12.959Z,46.30
2022-09-29T22:46:58.070Z,47.40
2022-09-29T22:49:43.190Z,42.30
2022-09-29T22:52:28.112Z,43.20
2022-09-29T22:55:13.061Z,46.37
2022-09-29T22:57:58.330Z,42.67
2022-09-29T23:00:43.279Z,41.27
2022-09-29T23:03:28.162Z,43.90
2022-09-29T23:06:13.814Z,41.93
2022-09-29T23:08:58.667Z,33.63
2022-09-29T23:11:44.123Z,38.60
2022-09-29T23:14:29.112Z,37.27
2022-09-29T23:17:13.882Z,37.40
2022-09-29T23:19:59.743Z,34.27
2022-09-29T23:22:44.601Z,38.33
2022-09-29T23:25:29.656Z,39.17
2022-09-29T23:28:14.529Z,39.90
2022-09-29T23:31:07.285Z,46.63
2022-09-29T23:33:54.146Z,43.17
2022-09-29T23:36:39.132Z,44.90
2022-09-29T23:39:24.611Z,38.07
2022-09-29T23:42:09.891Z,41.37
2022-09-29T23:44:55.184Z,36.17
2022-09-29T23:47:40.225Z,38.73
2022-09-29T23:50:25.205Z,35.93
2022-09-29T23:53:11.434Z,40.73
2022-09-29T23:55:56.347Z,37.10
2022-09-29T23:58:41.268Z,37.57
